createdAt,value
2024-04-25T00:00:40.389Z,144864.59
2024-04-25T00:03:08.816Z,144931.38
2024-04-25T00:05:35.976Z,144891.81
2024-04-25T00:08:05.266Z,144872.03
2024-04-25T00:10:32.362Z,144858.38
2024-04-25T00:12:59.421Z,144838.59
2024-04-25T00:15:26.459Z,144833.66
2024-04-25T00:17:53.620Z,144837.34
2024-04-25T00:20:20.869Z,144851.00
2024-04-25T00:22:47.939Z,144791.63
2024-04-25T00:25:15.033Z,144829.97
2024-04-25T00:27:42.140Z,144825.03
2024-04-25T00:30:09.787Z,144800.31
2024-04-25T00:32:36.875Z,144841.09
2024-04-25T00:35:04.422Z,144846.06
2024-04-25T00:37:31.546Z,144862.09
2024-04-25T00:39:58.614Z,144888.06
2024-04-25T00:42:25.736Z,144910.34
2024-04-25T00:44:53.874Z,144897.94
2024-04-25T00:47:24.479Z,144900.44
2024-04-25T00:49:55.748Z,144927.66
2024-04-25T00:52:23.726Z,144896.75
2024-04-25T00:54:51.024Z,144894.25
2024-04-25T00:57:20.136Z,144847.25
2024-04-25T00:59:48.793Z,144865.81
2024-04-25T01:02:17.350Z,144808.94
2024-04-25T01:04:45.134Z,144849.75
2024-04-25T01:07:12.726Z,144878.16
2024-04-25T01:09:39.741Z,144857.13
2024-04-25T01:12:07.051Z,144872.03
2024-04-25T01:14:34.686Z,144885.59
2024-04-25T01:17:01.803Z,144879.41
2024-04-25T01:19:28.887Z,144876.97
2024-04-25T01:21:56.923Z,144868.28
2024-04-25T01:24:29.421Z,144854.69
2024-04-25T01:26:57.798Z,144853.44
2024-04-25T01:29:25.900Z,144841.09
2024-04-25T01:31:53.990Z,144848.50
2024-04-25T01:34:21.806Z,144802.75
2024-04-25T01:36:48.909Z,144782.97
2024-04-25T01:39:15.961Z,144761.97
2024-04-25T01:41:43.093Z,144750.78
2024-04-25T01:44:10.671Z,144733.50
2024-04-25T01:46:39.618Z,144753.31
2024-04-25T01:49:06.753Z,144724.88
2024-04-25T01:51:33.861Z,144701.34
2024-04-25T01:54:01.129Z,144733.50
2024-04-25T01:56:34.586Z,144739.69
2024-04-25T01:59:03.860Z,144770.66
2024-04-25T02:01:31.173Z,144789.16
2024-04-25T02:03:58.385Z,144769.41
2024-04-25T02:06:25.486Z,144755.78
2024-04-25T02:08:52.651Z,144757.00
2024-04-25T02:11:20.094Z,144768.16
2024-04-25T02:13:47.179Z,144811.41
2024-04-25T02:16:14.225Z,144764.47
2024-04-25T02:19:04.205Z,144806.44
2024-04-25T02:21:49.789Z,144801.50
2024-04-25T02:24:35.638Z,144815.13
2024-04-25T02:27:02.864Z,144784.22
2024-04-25T02:29:29.890Z,144825.03
2024-04-25T02:31:56.978Z,144828.72
2024-04-25T02:34:24.014Z,144764.47
2024-04-25T02:36:50.997Z,144760.75
2024-04-25T02:39:18.029Z,144792.88
2024-04-25T02:41:45.047Z,144797.81
2024-04-25T02:44:12.107Z,144851.00
2024-04-25T02:46:39.218Z,144846.06
2024-04-25T02:49:06.271Z,144860.88
2024-04-25T02:51:33.307Z,144857.13
2024-04-25T02:54:00.940Z,144855.94
2024-04-25T02:56:28.043Z,144848.50
2024-04-25T02:58:55.165Z,144823.78
2024-04-25T03:01:22.219Z,144841.09
2024-04-25T03:03:49.278Z,144822.53
2024-04-25T03:06:16.400Z,144836.16
2024-04-25T03:08:43.498Z,144838.59
2024-04-25T03:11:10.587Z,144831.22
2024-04-25T03:13:39.931Z,144821.31
2024-04-25T03:16:08.655Z,144851.00
2024-04-25T03:18:35.815Z,144804.00
2024-04-25T03:21:06.725Z,144775.59
2024-04-25T03:23:36.532Z,144786.69
2024-04-25T03:26:06.778Z,144801.50
2024-04-25T03:28:35.010Z,144823.78
2024-04-25T03:31:02.683Z,144851.00
2024-04-25T03:33:29.754Z,144846.06
2024-04-25T03:35:57.036Z,144806.44
2024-04-25T03:38:24.221Z,144853.44
2024-04-25T03:40:51.313Z,144828.72
2024-04-25T03:43:18.918Z,144844.81
2024-04-25T03:45:46.006Z,144806.44
2024-04-25T03:48:13.331Z,144831.22
2024-04-25T03:50:40.875Z,144880.66
2024-04-25T03:53:10.386Z,144833.66
2024-04-25T03:55:38.779Z,144847.25
2024-04-25T03:58:05.911Z,144841.09
2024-04-25T04:00:32.943Z,144841.09
2024-04-25T04:03:00.203Z,144843.56
2024-04-25T04:05:27.391Z,144838.59
2024-04-25T04:07:54.840Z,144821.31
2024-04-25T04:10:21.940Z,144844.81
2024-04-25T04:12:49.527Z,144828.72
2024-04-25T04:15:20.683Z,144818.84
2024-04-25T04:17:49.243Z,144789.16
2024-04-25T04:20:16.574Z,144770.66
2024-04-25T04:22:43.756Z,144747.09
2024-04-25T04:25:11.372Z,144786.69
2024-04-25T04:27:38.543Z,144826.28
2024-04-25T04:30:06.520Z,144832.41
2024-04-25T04:32:33.831Z,144828.72
2024-04-25T04:35:01.039Z,144823.78
2024-04-25T04:37:28.049Z,144813.88
2024-04-25T04:39:55.151Z,144789.16
2024-04-25T04:42:22.313Z,144766.91
2024-04-25T04:44:50.501Z,144841.09
2024-04-25T04:47:17.872Z,144842.31
2024-04-25T04:49:44.974Z,144782.97
2024-04-25T04:52:12.264Z,144801.50
2024-04-25T04:54:39.580Z,144870.78
2024-04-25T04:57:07.726Z,144869.53
2024-04-25T04:59:34.813Z,144880.66
2024-04-25T05:02:02.056Z,144907.84
2024-04-25T05:04:29.062Z,144769.41
2024-04-25T05:06:56.355Z,144874.47
2024-04-25T05:09:23.389Z,144931.38
2024-04-25T05:11:50.655Z,144780.53
2024-04-25T05:14:17.912Z,144897.94
2024-04-25T05:16:45.358Z,144947.44
2024-04-25T05:19:12.372Z,144895.50
2024-04-25T05:21:39.573Z,144854.69
2024-04-25T05:24:06.844Z,144790.41
2024-04-25T05:26:33.961Z,144848.50
2024-04-25T05:29:01.053Z,144844.81
2024-04-25T05:31:28.043Z,144813.88
2024-04-25T05:33:56.266Z,144802.75
2024-04-25T05:36:23.374Z,144847.25
2024-04-25T05:38:50.585Z,144849.75
2024-04-25T05:41:17.841Z,144825.03
2024-04-25T05:43:44.880Z,144847.25
2024-04-25T05:46:12.138Z,144863.34
2024-04-25T05:48:39.614Z,144878.16
2024-04-25T05:51:06.863Z,144855.94
2024-04-25T05:53:34.038Z,144859.63
2024-04-25T05:56:01.228Z,144841.09
2024-04-25T05:58:28.283Z,144942.50
2024-04-25T06:00:55.361Z,144910.34
2024-04-25T06:03:22.550Z,144897.94
2024-04-25T06:05:49.859Z,144927.66
2024-04-25T06:08:17.067Z,144956.09
2024-04-25T06:10:44.492Z,144989.47
2024-04-25T06:13:11.771Z,145029.16
2024-04-25T06:15:38.989Z,145030.34
2024-04-25T06:18:08.939Z,145014.22
2024-04-25T06:20:36.100Z,145016.75
2024-04-25T06:23:06.758Z,145051.38
2024-04-25T06:25:34.035Z,145009.25
2024-04-25T06:28:01.864Z,145035.28
2024-04-25T06:30:29.023Z,145020.44
2024-04-25T06:32:59.149Z,145024.16
2024-04-25T06:35:26.384Z,144970.94
2024-04-25T06:37:53.455Z,145081.06
2024-04-25T06:40:20.661Z,145073.69
2024-04-25T06:42:47.762Z,145090.97
2024-04-25T06:45:15.244Z,145110.75
2024-04-25T06:47:42.869Z,145118.22
2024-04-25T06:50:10.077Z,145166.44
2024-04-25T06:52:37.185Z,145211.06
2024-04-25T06:55:04.730Z,145258.06
2024-04-25T06:57:32.037Z,145305.16
2024-04-25T06:59:59.101Z,145357.19
2024-04-25T07:02:26.369Z,145407.97
2024-04-25T07:04:55.287Z,145394.38
2024-04-25T07:07:23.541Z,145400.50
2024-04-25T07:09:50.600Z,145452.56
2024-04-25T07:12:17.715Z,145474.88
2024-04-25T07:14:44.774Z,145499.69
2024-04-25T07:17:11.946Z,145502.16
2024-04-25T07:19:39.089Z,145424.09
2024-04-25T07:22:06.341Z,145460.00
2024-04-25T07:24:34.051Z,145370.78
2024-04-25T07:27:01.099Z,145425.28
2024-04-25T07:29:28.191Z,145432.75
2024-04-25T07:31:55.769Z,145344.78
2024-04-25T07:34:22.800Z,145346.03
2024-04-25T07:36:49.824Z,145381.94
2024-04-25T07:39:20.943Z,145363.38
2024-04-25T07:41:49.650Z,145364.59
2024-04-25T07:44:16.822Z,145410.41
2024-04-25T07:46:44.207Z,145405.47
2024-04-25T07:49:13.890Z,145410.41
2024-04-25T07:51:41.201Z,145372.03
2024-04-25T07:54:09.178Z,145347.28
2024-04-25T07:56:36.422Z,145336.13
2024-04-25T07:59:03.737Z,145301.47
2024-04-25T08:01:30.911Z,145301.47
2024-04-25T08:03:59.633Z,145251.91
2024-04-25T08:06:26.718Z,145165.25
2024-04-25T08:08:53.939Z,145225.91
2024-04-25T08:11:21.092Z,145254.34
2024-04-25T08:13:48.375Z,145294.00
2024-04-25T08:16:15.680Z,145346.03
2024-04-25T08:18:44.480Z,145317.56
2024-04-25T08:21:11.554Z,145334.88
2024-04-25T08:23:38.694Z,145350.97
2024-04-25T08:26:05.960Z,145353.50
2024-04-25T08:28:33.204Z,145375.75
2024-04-25T08:31:00.205Z,145495.94
2024-04-25T08:33:27.920Z,145627.34
2024-04-25T08:35:54.982Z,145609.97
2024-04-25T08:38:23.019Z,145581.47
2024-04-25T08:40:53.512Z,145536.84
2024-04-25T08:43:21.657Z,145639.72
2024-04-25T08:45:50.760Z,145648.38
2024-04-25T08:48:19.148Z,145732.75
2024-04-25T08:50:49.135Z,145727.78
2024-04-25T08:53:17.632Z,145700.44
2024-04-25T08:55:45.793Z,145680.63
2024-04-25T08:58:13.133Z,145628.53
2024-04-25T09:00:41.811Z,145623.59
2024-04-25T09:03:11.076Z,145636.00
2024-04-25T09:05:38.263Z,145638.47
2024-04-25T09:08:11.622Z,145757.53
2024-04-25T09:10:42.952Z,145688.09
2024-04-25T09:13:10.820Z,145712.88
2024-04-25T09:15:37.853Z,145613.66
2024-04-25T09:18:05.520Z,145779.88
2024-04-25T09:20:33.044Z,145875.38
2024-04-25T09:23:04.289Z,145938.66
2024-04-25T09:25:33.762Z,145862.94
2024-04-25T09:28:03.776Z,145833.19
2024-04-25T09:30:34.301Z,145948.59
2024-04-25T09:33:06.164Z,145916.31
2024-04-25T09:35:40.887Z,145897.69
2024-04-25T09:38:07.950Z,145876.63
2024-04-25T09:40:35.022Z,145843.13
2024-04-25T09:43:02.554Z,145772.44
2024-04-25T09:45:32.077Z,145812.09
2024-04-25T09:48:06.079Z,145706.66
2024-04-25T09:50:36.474Z,145701.69
2024-04-25T09:53:18.512Z,145788.56
2024-04-25T09:55:47.262Z,145836.91
2024-04-25T09:58:41.625Z,145792.25
2024-04-25T10:01:09.163Z,145897.69
2024-04-25T10:03:37.927Z,145901.44
2024-04-25T10:06:05.777Z,145959.78
2024-04-25T10:08:33.016Z,145949.84
2024-04-25T10:11:03.843Z,145892.72
2024-04-25T10:13:32.498Z,145787.31
2024-04-25T10:15:59.683Z,145841.84
2024-04-25T10:18:28.280Z,145916.31
2024-04-25T10:21:04.608Z,145968.44
2024-04-25T10:23:35.651Z,145789.81
2024-04-25T10:26:03.089Z,145736.47
2024-04-25T10:28:30.958Z,145711.63
2024-04-25T10:30:59.819Z,145658.28
2024-04-25T10:33:27.042Z,145662.03
2024-04-25T10:35:56.544Z,145702.97
2024-04-25T10:38:24.125Z,145690.53
2024-04-25T10:40:51.393Z,145663.28
2024-04-25T10:43:19.000Z,145673.22
2024-04-25T10:45:46.391Z,145648.38
2024-04-25T10:48:13.758Z,145618.63
2024-04-25T10:50:43.229Z,145539.34
2024-04-25T10:53:10.498Z,145588.88
2024-04-25T10:55:37.675Z,145609.97
2024-04-25T10:58:15.163Z,145591.41
2024-04-25T11:00:45.847Z,145596.34
2024-04-25T11:03:13.370Z,145509.59
2024-04-25T11:05:41.557Z,145490.94
2024-04-25T11:08:08.668Z,145505.91
2024-04-25T11:10:36.277Z,145521.97
2024-04-25T11:13:03.842Z,145430.25
2024-04-25T11:15:32.792Z,145324.97
2024-04-25T11:18:09.887Z,145178.84
2024-04-25T11:20:41.759Z,144923.94
2024-04-25T11:23:21.379Z,144724.88
2024-04-25T11:25:51.834Z,144648.25
2024-04-25T11:28:20.211Z,144577.81
2024-04-25T11:30:47.889Z,144554.31
2024-04-25T11:33:20.746Z,144553.13
2024-04-25T11:35:48.005Z,144540.75
2024-04-25T11:38:17.482Z,144525.94
2024-04-25T11:40:46.842Z,144556.81
2024-04-25T11:43:15.307Z,144581.53
2024-04-25T11:45:45.499Z,144633.41
2024-04-25T11:48:22.195Z,144539.50
2024-04-25T11:50:49.944Z,144457.94
2024-04-25T11:53:17.570Z,144403.63
2024-04-25T11:55:44.817Z,144344.41
2024-04-25T11:58:11.968Z,144401.19
2024-04-25T12:00:39.673Z,144416.00
2024-04-25T12:06:47.252Z,144416.00
2024-04-25T12:09:14.300Z,144388.81
2024-04-25T12:11:44.694Z,144430.81
2024-04-25T12:14:13.905Z,144457.94
2024-04-25T12:16:41.030Z,144498.75
2024-04-25T12:19:08.110Z,144532.13
2024-04-25T12:21:35.178Z,144586.47
2024-04-25T12:24:02.268Z,144617.34
2024-04-25T12:26:29.359Z,144637.13
2024-04-25T12:28:56.410Z,144697.66
2024-04-25T12:31:23.449Z,144737.19
2024-04-25T12:33:52.636Z,144722.38
2024-04-25T12:36:19.840Z,144690.22
2024-04-25T12:38:47.115Z,144645.75
2024-04-25T12:41:14.469Z,144574.09
2024-04-25T12:43:41.525Z,144509.88
2024-04-25T12:46:08.540Z,144451.81
2024-04-25T12:48:35.831Z,144440.69
2024-04-25T12:51:03.066Z,144402.38
2024-04-25T12:53:30.211Z,144418.44
2024-04-25T12:55:58.384Z,144412.25
2024-04-25T12:58:26.604Z,144432.00
2024-04-25T13:00:53.694Z,144506.19
2024-04-25T13:03:20.790Z,144544.44
2024-04-25T13:05:47.941Z,144524.69
2024-04-25T13:08:15.016Z,144582.78
2024-04-25T13:10:45.123Z,144617.34
2024-04-25T13:13:13.597Z,144560.53
2024-04-25T13:15:40.691Z,144479.00
2024-04-25T13:18:07.799Z,144527.19
2024-04-25T13:20:34.868Z,144549.38
2024-04-25T13:23:01.961Z,144598.78
2024-04-25T13:25:29.050Z,144602.53
2024-04-25T13:27:56.142Z,144561.75
2024-04-25T13:30:23.250Z,144574.09
2024-04-25T13:32:52.400Z,144514.81
2024-04-25T13:35:19.987Z,144519.75
2024-04-25T13:37:47.169Z,144572.88
2024-04-25T13:40:14.274Z,144550.63
2024-04-25T13:42:41.440Z,144569.16
2024-04-25T13:45:08.656Z,144569.16
2024-04-25T13:47:35.762Z,144618.59
2024-04-25T13:50:02.890Z,144616.09
2024-04-25T13:52:30.843Z,144658.13
2024-04-25T13:54:57.836Z,144749.59
2024-04-25T13:57:25.713Z,144787.91
2024-04-25T13:59:52.785Z,144590.16
2024-04-25T14:02:19.933Z,144770.66
2024-04-25T14:04:46.999Z,144816.38
2024-04-25T14:07:14.020Z,144851.00
2024-04-25T14:09:42.457Z,144972.19
2024-04-25T14:12:09.684Z,145031.59
2024-04-25T14:14:36.972Z,145076.13
2024-04-25T14:17:04.053Z,144989.47
2024-04-25T14:19:31.015Z,144972.19
2024-04-25T14:21:58.022Z,145048.94
2024-04-25T14:24:25.108Z,144970.94
2024-04-25T14:27:10.735Z,144954.84
2024-04-25T14:29:39.743Z,144962.28
2024-04-25T14:32:06.831Z,144946.19
2024-04-25T14:34:34.613Z,144964.75
2024-04-25T14:37:01.633Z,144932.63
2024-04-25T14:39:28.747Z,144942.50
2024-04-25T14:41:55.989Z,144973.44
2024-04-25T14:44:23.054Z,145009.25
2024-04-25T14:46:50.160Z,144999.38
2024-04-25T14:49:17.179Z,145011.75
2024-04-25T14:51:44.201Z,144999.38
2024-04-25T14:54:11.192Z,144999.38
2024-04-25T14:56:38.431Z,145043.97
2024-04-25T14:59:08.208Z,145020.44
2024-04-25T15:01:35.589Z,145019.19
2024-04-25T15:04:05.959Z,144990.72
2024-04-25T15:06:39.788Z,144885.59
2024-04-25T15:09:07.029Z,144907.84
2024-04-25T15:11:34.202Z,144875.72
2024-04-25T15:14:01.338Z,144843.56
2024-04-25T15:16:28.393Z,144821.31
2024-04-25T15:18:55.601Z,144644.50
2024-04-25T15:21:22.671Z,144556.81
2024-04-25T15:23:49.813Z,144495.06
2024-04-25T15:26:17.131Z,144433.25
2024-04-25T15:28:44.210Z,144402.38
2024-04-25T15:31:11.278Z,144325.84
2024-04-25T15:33:38.466Z,144223.47
2024-04-25T15:36:05.862Z,144206.16
2024-04-25T15:38:32.955Z,144235.78
2024-04-25T15:40:59.975Z,144218.53
2024-04-25T15:43:27.034Z,144184.00
2024-04-25T15:45:54.091Z,144155.53
2024-04-25T15:48:21.324Z,144142.00
2024-04-25T15:50:48.491Z,144100.03
2024-04-25T15:53:15.588Z,143995.25
2024-04-25T15:55:42.578Z,143902.78
2024-04-25T15:58:09.549Z,143863.34
2024-04-25T16:00:36.580Z,143878.13
2024-04-25T16:03:04.504Z,143843.63
2024-04-25T16:05:31.846Z,143879.38
2024-04-25T16:07:59.805Z,143904.03
2024-04-25T16:10:26.849Z,143892.91
2024-04-25T16:12:53.866Z,143986.63
2024-04-25T16:15:20.882Z,143961.94
2024-04-25T16:17:47.974Z,143929.91
2024-04-25T16:20:15.214Z,143857.19
2024-04-25T16:22:43.556Z,143852.25
2024-04-25T16:25:11.044Z,143896.59
2024-04-25T16:27:38.112Z,143928.66
2024-04-25T16:30:05.683Z,143958.25
2024-04-25T16:32:32.802Z,143998.94
2024-04-25T16:34:59.937Z,144011.28
2024-04-25T16:37:27.564Z,144048.22
2024-04-25T16:39:56.117Z,144134.56
2024-04-25T16:42:23.176Z,144161.72
2024-04-25T16:44:53.071Z,144181.50
2024-04-25T16:47:20.456Z,144232.09
2024-04-25T16:49:47.685Z,144211.09
2024-04-25T16:52:14.676Z,144216.03
2024-04-25T16:54:41.709Z,144191.38
2024-04-25T16:57:09.260Z,144171.63
2024-04-25T16:59:37.410Z,144162.97
2024-04-25T17:02:04.830Z,144145.69
2024-04-25T17:04:32.582Z,144151.84
2024-04-25T17:06:59.809Z,144139.50
2024-04-25T17:09:28.529Z,144107.47
2024-04-25T17:11:56.050Z,144122.25
2024-04-25T17:14:23.301Z,144108.66
2024-04-25T17:16:50.352Z,144109.91
2024-04-25T17:19:17.393Z,144054.41
2024-04-25T17:21:44.594Z,144034.69
2024-04-25T17:24:11.721Z,143992.75
2024-04-25T17:26:41.849Z,143923.75
2024-04-25T17:29:10.147Z,143910.19
2024-04-25T17:31:38.284Z,143900.34
2024-04-25T17:34:05.963Z,143871.97
2024-04-25T17:36:33.171Z,143873.22
2024-04-25T17:39:00.300Z,143869.53
2024-04-25T17:41:27.459Z,143922.50
2024-04-25T17:43:54.614Z,143890.47
2024-04-25T17:46:21.854Z,143932.34
2024-04-25T17:48:49.067Z,143965.66
2024-04-25T17:51:22.348Z,144026.06
2024-04-25T17:53:53.505Z,144056.91
2024-04-25T17:56:20.722Z,144071.69
2024-04-25T17:58:47.759Z,144132.13
2024-04-25T18:01:14.952Z,144112.41
2024-04-25T18:03:42.104Z,144148.16
2024-04-25T18:06:10.556Z,144087.72
2024-04-25T18:08:37.780Z,144079.06
2024-04-25T18:11:05.368Z,144055.66
2024-04-25T18:13:33.199Z,144090.19
2024-04-25T18:16:00.292Z,144101.28
2024-04-25T18:18:28.480Z,144133.38
2024-04-25T18:20:55.690Z,144093.88
2024-04-25T18:23:22.788Z,144026.06
2024-04-25T18:25:49.801Z,144082.81
2024-04-25T18:28:21.828Z,144077.88
2024-04-25T18:30:48.851Z,143969.34
2024-04-25T18:33:16.048Z,143890.47
2024-04-25T18:35:43.212Z,143864.59
2024-04-25T18:38:10.265Z,143851.00
2024-04-25T18:40:37.674Z,143830.09
2024-04-25T18:43:05.059Z,143795.50
2024-04-25T18:45:32.060Z,143823.88
2024-04-25T18:47:59.370Z,143778.28
2024-04-25T18:50:26.533Z,143781.97
2024-04-25T18:52:53.578Z,143814.03
2024-04-25T18:55:20.597Z,143823.88
2024-04-25T18:57:47.654Z,143805.38
2024-04-25T19:00:17.549Z,143770.88
2024-04-25T19:02:44.900Z,143785.66
2024-04-25T19:05:12.023Z,143816.47
2024-04-25T19:07:39.097Z,143817.72
2024-04-25T19:10:07.276Z,143835.03
2024-04-25T19:12:38.268Z,143801.69
2024-04-25T19:15:06.473Z,143781.97
2024-04-25T19:17:33.696Z,143777.06
2024-04-25T19:20:00.798Z,143814.03
2024-04-25T19:22:30.504Z,143838.72
2024-04-25T19:24:58.008Z,143838.72
2024-04-25T19:27:26.385Z,143892.91
2024-04-25T19:29:54.240Z,143941.00
2024-04-25T19:32:22.129Z,143971.84
2024-04-25T19:34:58.073Z,143929.91
2024-04-25T19:37:25.094Z,144048.22
2024-04-25T19:39:53.795Z,144061.84
2024-04-25T19:42:21.128Z,144075.38
2024-04-25T19:44:48.310Z,144060.59
2024-04-25T19:47:15.470Z,144011.28
2024-04-25T19:49:42.577Z,144077.88
2024-04-25T19:52:10.064Z,143985.38
2024-04-25T19:54:37.161Z,144070.44
2024-04-25T19:57:04.539Z,144080.31
2024-04-25T19:59:35.054Z,144069.19
2024-04-25T20:02:02.412Z,144085.25
2024-04-25T20:04:29.674Z,144117.31
2024-04-25T20:06:56.660Z,144065.50
2024-04-25T20:09:23.776Z,144010.03
2024-04-25T20:11:51.076Z,143964.41
2024-04-25T20:14:18.280Z,143924.97
2024-04-25T20:16:46.277Z,144063.03
2024-04-25T20:19:32.067Z,144045.78
2024-04-25T20:21:59.116Z,144048.22
2024-04-25T20:24:26.106Z,143958.25
2024-04-25T20:26:56.440Z,143989.06
2024-04-25T20:29:25.434Z,143926.22
2024-04-25T20:31:53.608Z,143931.16
2024-04-25T20:34:21.508Z,143923.75
2024-04-25T20:36:48.532Z,143862.09
2024-04-25T20:39:15.570Z,143827.56
2024-04-25T20:41:43.442Z,143818.94
2024-04-25T20:44:10.594Z,143839.97
2024-04-25T20:46:37.669Z,143762.28
2024-04-25T20:49:04.861Z,143722.88
2024-04-25T20:51:32.759Z,143768.44
2024-04-25T20:54:01.686Z,143790.59
2024-04-25T20:56:29.028Z,143785.66
2024-04-25T20:58:56.057Z,143809.09
2024-04-25T21:01:23.113Z,143822.63
2024-04-25T21:03:50.316Z,143833.78
2024-04-25T21:06:17.420Z,143846.06
2024-04-25T21:08:44.625Z,143796.75
2024-04-25T21:11:11.716Z,143794.31
2024-04-25T21:13:38.813Z,143777.06
2024-04-25T21:16:06.231Z,143851.00
2024-04-25T21:18:34.345Z,143846.06
2024-04-25T21:21:03.579Z,143843.63
2024-04-25T21:23:31.342Z,143816.47
2024-04-25T21:26:01.507Z,143838.72
2024-04-25T21:28:29.456Z,143802.94
2024-04-25T21:30:56.588Z,143786.91
2024-04-25T21:33:24.875Z,143789.41
2024-04-25T21:35:52.138Z,143721.63
2024-04-25T21:38:19.439Z,143748.75
2024-04-25T21:40:46.755Z,143790.59
2024-04-25T21:43:13.853Z,143763.50
2024-04-25T21:45:41.191Z,143811.53
2024-04-25T21:48:08.862Z,143822.63
2024-04-25T21:50:36.427Z,143796.75
2024-04-25T21:53:03.540Z,143800.44
2024-04-25T21:55:30.549Z,143801.69
2024-04-25T21:57:59.913Z,143697.00
2024-04-25T22:00:29.373Z,143786.91
2024-04-25T22:02:57.536Z,143772.13
2024-04-25T22:05:25.066Z,143773.38
2024-04-25T22:07:52.115Z,143708.09
2024-04-25T22:10:19.054Z,143717.94
2024-04-25T22:12:46.203Z,143653.88
2024-04-25T22:15:13.304Z,143735.16
2024-04-25T22:17:40.555Z,143708.09
2024-04-25T22:20:08.047Z,143741.31
2024-04-25T22:22:38.810Z,143769.69
2024-04-25T22:25:05.907Z,143708.09
2024-04-25T22:27:37.771Z,143647.75
2024-04-25T22:30:06.170Z,143599.69
2024-04-25T22:32:33.460Z,143575.09
2024-04-25T22:35:00.566Z,143589.84
2024-04-25T22:37:27.616Z,143549.22
2024-04-25T22:39:54.626Z,143545.56
2024-04-25T22:42:21.990Z,143572.66
2024-04-25T22:44:54.270Z,143500.00
2024-04-25T22:47:23.774Z,143566.47
2024-04-25T22:49:50.945Z,143597.25
2024-04-25T22:52:18.326Z,143577.56
2024-04-25T22:54:45.455Z,143614.47
2024-04-25T22:57:12.461Z,143628.06
2024-04-25T22:59:39.612Z,143621.88
2024-04-25T23:02:06.769Z,143609.56
2024-04-25T23:04:35.604Z,143598.47
2024-04-25T23:07:03.010Z,143581.25
2024-04-25T23:09:30.133Z,143575.09
2024-04-25T23:11:57.251Z,143582.50
2024-04-25T23:14:24.473Z,143529.53
2024-04-25T23:16:51.638Z,143565.25
2024-04-25T23:19:18.687Z,143552.97
2024-04-25T23:21:45.740Z,143527.09
2024-04-25T23:24:13.104Z,143520.94
2024-04-25T23:26:40.304Z,143502.50
2024-04-25T23:29:07.648Z,143554.16
2024-04-25T23:31:34.681Z,143555.41
2024-04-25T23:34:01.957Z,143533.22
2024-04-25T23:36:29.077Z,143637.91
2024-04-25T23:38:56.442Z,143635.41
2024-04-25T23:41:23.559Z,143609.56
2024-04-25T23:43:50.688Z,143603.44
2024-04-25T23:46:17.734Z,143528.28
2024-04-25T23:48:44.886Z,143575.09
2024-04-25T23:51:11.960Z,143530.78
2024-04-25T23:53:40.019Z,143565.25
2024-04-25T23:56:10.132Z,143523.38
2024-04-25T23:58:37.904Z,143552.97
